Relatórios de METAR próximas

 

LPAR - Alverca, Portugal
Distance from station: SO 47km
Actualizado: 22/09/2017 17:00
NÃO Actual
Céu Limpo
Céu Limpo
 Vento de varies
Vento: varies 0 km/h
Temperatura: 26°C
Ponto de Orvalho: 14°C
Humidade: 48%
Barómetro: 1016 hPa
Resumo: Céu Limpo
Visibilidade: greater than 10 km
2017/09/22 16:00 LPAR 221600Z /////KT CAVOK 26/14 Q1016
LPPT - Lisbon/Portela, Portugal
Distance from station: SO 61km
Actualizado: 24/09/2017 21:30
Few Clouds
Few Clouds
 Vento de NO
Vento: NO 20 km/h
Temperatura: 20°C
Ponto de Orvalho: 17°C
Humidade: 83%
Barómetro: 1022 hPa
Nuvens: Few Clouds
Visibilidade: 10 km
Cloud details: Few Clouds 274 m
2017/09/24 20:30 LPPT 242030Z 31011KT 9999 FEW009 20/17 Q1022
 
LPMT - Montijo (por-Afb, Portugal
Distance from station: SO 62km
Actualizado: 24/09/2017 21:00
Few Clouds
Few Clouds
 Vento de N
Vento: N 7 km/h
Temperatura: 19°C
Ponto de Orvalho: 15°C
Humidade: 78%
Barómetro: 1022 hPa
Nuvens: Few Clouds
Visibilidade: 10 km
Cloud details: Few Clouds 762 m
2017/09/24 20:00 LPMT 242000Z 35004KT 310V030 9999 FEW025 19/15 Q1022
LPST - Sintra/Granja (a, Portugal
Distance from station: OSO 72km
Actualizado: 22/09/2017 17:00
NÃO Actual
Few Clouds
Few Clouds
 Vento de ONO
Vento: ONO 20 km/h
Temperatura: 19°C
Ponto de Orvalho: 13°C
Humidade: 68%
Barómetro: 1018 hPa
Nuvens: Few Clouds
Visibilidade: 10 km
Cloud details: Few Clouds 671 m
2017/09/22 16:00 LPST 221600Z 30011KT 9999 FEW022 19/13 Q1018
 
LPMR - Monte Real(Por-A, Portugal
Distance from station: NNO 80km
Actualizado: 24/09/2017 21:00
Light drizzle, Mist, Muito Nublado
Light drizzle, Mist, Muito Nublado
 Vento de varies
Vento: varies 4 km/h
Temperatura: 17°C
Ponto de Orvalho: 16°C
Humidade: 94%
Barómetro: 1022 hPa
Resumo: Light drizzle, Mist
Nuvens: Muito Nublado
Visibilidade: 2 km
Cloud details: Parc. Nublado 122 m
Muito Nublado 183 m
Muito Nublado 457 m
2017/09/24 20:00 LPMR 242000Z VRB02KT 2200 -DZ BR SCT004 BKN006 BKN015 17/16 Q1022
LPBJ - Beja (por/Ger-Af, Portugal
Distance from station: SSE 139km
Actualizado: 24/09/2017 21:00
Céu Limpo
Céu Limpo
 Vento de ONO
Vento: ONO 26 km/h
Temperatura: 22°C
Ponto de Orvalho: -4°C
Humidade: 17%
Barómetro: 1021 hPa
Resumo: Céu Limpo
Visibilidade: greater than 10 km
2017/09/24 20:00 LPBJ 242000Z 30014KT CAVOK 22/M04 Q1021